Time;durP1;ratioP1;P1;durP2;ratioP2;P2;SDS_P1;SDS_P2;PMS_P1;PMS_P2;Temp;Humidity;BMP_temperature;BMP_pressure;BME280_temperature;BME280_humidity;BME280_pressure;Samples;Min_cycle;Max_cycle;Signal;HPM_P1;HPM_P2
2023/06/13 00:02:01;;;;;;;10.98;4.07;;;17.40;99.90;;;;;;5075065;28;20053;-75
2023/06/13 00:04:30;;;;;;;14.52;4.28;;;17.30;99.90;;;;;;5073835;28;20337;-75
2023/06/13 00:07:00;;;;;;;8.38;4.00;;;17.30;99.90;;;;;;5065985;28;20036;-75
2023/06/13 00:09:26;;;;;;;9.85;4.32;;;17.30;99.90;;;;;;5073040;28;20067;-75
2023/06/13 00:11:52;;;;;;;9.73;4.28;;;17.20;99.90;;;;;;5071367;28;20048;-75
2023/06/13 00:14:20;;;;;;;10.30;4.10;;;17.20;99.90;;;;;;5071656;28;20036;-75
2023/06/13 00:16:48;;;;;;;9.02;4.65;;;17.10;99.90;;;;;;5066839;28;20037;-75
2023/06/13 00:19:14;;;;;;;14.40;5.30;;;17.10;99.90;;;;;;5074424;28;20033;-75
2023/06/13 00:21:41;;;;;;;10.85;5.50;;;17.00;99.90;;;;;;5071174;28;20048;-75
2023/06/13 00:24:07;;;;;;;11.75;5.53;;;17.00;99.90;;;;;;5071389;28;20107;-75
2023/06/13 00:26:33;;;;;;;12.13;5.53;;;16.90;99.90;;;;;;5072014;28;20064;-75
2023/06/13 00:28:59;;;;;;;11.85;5.40;;;16.90;99.90;;;;;;5077988;28;20297;-75
2023/06/13 00:31:28;;;;;;;10.13;5.45;;;16.80;99.90;;;;;;5071184;28;20053;-75
2023/06/13 00:33:59;;;;;;;12.20;5.93;;;16.80;99.90;;;;;;5055270;28;20040;-75
2023/06/13 00:36:27;;;;;;;12.52;5.90;;;16.80;99.90;;;;;;5067731;28;20064;-75
2023/06/13 00:38:57;;;;;;;11.55;5.40;;;16.80;99.90;;;;;;5075806;28;20219;-75
2023/06/13 00:41:23;;;;;;;10.25;5.43;;;16.70;99.90;;;;;;5062293;28;20041;-75
2023/06/13 00:43:49;;;;;;;14.05;6.10;;;16.70;99.90;;;;;;5057641;28;20430;-75
2023/06/13 00:46:17;;;;;;;11.18;5.93;;;16.70;99.90;;;;;;5073545;28;20147;-75
2023/06/13 00:48:44;;;;;;;11.63;5.50;;;16.60;99.90;;;;;;5070655;28;20060;-75
2023/06/13 00:51:14;;;;;;;12.00;5.47;;;16.60;99.90;;;;;;5078797;28;20048;-75
2023/06/13 00:53:41;;;;;;;11.27;5.10;;;16.60;99.90;;;;;;5071430;28;20048;-75
2023/06/13 00:56:07;;;;;;;9.63;4.85;;;16.50;99.90;;;;;;5055560;28;20150;-75
2023/06/13 00:58:36;;;;;;;11.45;4.80;;;16.50;99.90;;;;;;5070085;28;20033;-75
2023/06/13 01:01:02;;;;;;;10.07;4.65;;;16.40;99.90;;;;;;5073129;28;20100;-75
2023/06/13 01:03:29;;;;;;;11.32;4.68;;;16.40;99.90;;;;;;5074969;28;20092;-75
2023/06/13 01:05:55;;;;;;;12.77;4.35;;;16.50;99.90;;;;;;5077548;28;20322;-75
2023/06/13 01:08:24;;;;;;;12.60;4.50;;;16.30;99.90;;;;;;5075302;28;20142;-75
2023/06/13 01:10:59;;;;;;;9.55;4.32;;;16.30;99.90;;;;;;5076000;28;20062;-75
2023/06/13 01:13:30;;;;;;;10.18;4.32;;;16.30;99.90;;;;;;5075359;28;20048;-75
2023/06/13 01:16:25;;;;;;;10.80;4.15;;;16.20;99.90;;;;;;5072881;28;20037;-75
2023/06/13 01:18:53;;;;;;;10.02;4.25;;;16.20;99.90;;;;;;5061747;28;20272;-75
2023/06/13 01:21:21;;;;;;;11.35;4.45;;;16.20;99.90;;;;;;5077176;28;20052;-75
2023/06/13 01:23:57;;;;;;;10.93;4.55;;;16.10;99.90;;;;;;5073933;28;20241;-75
2023/06/13 01:26:48;;;;;;;9.38;4.63;;;16.10;99.90;;;;;;5073244;28;20119;-75
2023/06/13 01:29:18;;;;;;;11.77;4.72;;;16.10;99.90;;;;;;5071456;28;20120;-76
2023/06/13 01:31:46;;;;;;;9.93;4.45;;;16.00;99.90;;;;;;5070209;28;20044;-75
2023/06/13 01:34:14;;;;;;;10.07;5.05;;;16.00;99.90;;;;;;5076024;28;20039;-75
2023/06/13 01:36:39;;;;;;;11.35;4.95;;;16.00;99.90;;;;;;5075423;28;20042;-75
2023/06/13 01:39:05;;;;;;;9.73;4.85;;;16.00;99.90;;;;;;5075417;28;20037;-75
2023/06/13 01:41:31;;;;;;;12.05;4.70;;;16.00;99.90;;;;;;5071724;28;20029;-75
2023/06/13 01:43:56;;;;;;;12.55;4.95;;;15.90;99.90;;;;;;5072568;28;20259;-75
2023/06/13 01:46:26;;;;;;;11.07;4.85;;;15.90;99.90;;;;;;5072237;28;20040;-75
2023/06/13 01:49:17;;;;;;;15.98;5.30;;;15.90;99.90;;;;;;5071299;28;20040;-75
2023/06/13 01:52:11;;;;;;;11.88;5.22;;;15.90;99.90;;;;;;5076672;28;20045;-75
2023/06/13 01:54:40;;;;;;;11.00;5.20;;;15.90;99.90;;;;;;5069825;28;20040;-75
2023/06/13 01:57:09;;;;;;;11.43;5.43;;;15.80;99.90;;;;;;5074060;28;20178;-75
2023/06/13 01:59:38;;;;;;;14.23;5.80;;;15.80;99.90;;;;;;5074925;28;20028;-75
2023/06/13 02:02:05;;;;;;;11.25;5.50;;;15.80;99.90;;;;;;5071946;28;20099;-75
2023/06/13 02:04:39;;;;;;;13.27;5.78;;;15.80;99.90;;;;;;5071677;28;20053;-75
2023/06/13 02:07:05;;;;;;;11.63;5.78;;;15.80;99.90;;;;;;5074522;28;20032;-75
2023/06/13 02:09:31;;;;;;;10.85;5.03;;;15.70;99.90;;;;;;5052562;28;20067;-75
2023/06/13 02:11:56;;;;;;;10.40;4.90;;;15.70;99.90;;;;;;5072786;28;20116;-75
2023/06/13 02:14:23;;;;;;;11.25;4.60;;;15.70;99.90;;;;;;5071055;28;20044;-75
2023/06/13 02:16:48;;;;;;;9.77;4.20;;;15.70;99.90;;;;;;5075154;28;20048;-75
2023/06/13 02:19:14;;;;;;;9.05;4.38;;;15.70;99.90;;;;;;5077002;28;20100;-75
2023/06/13 02:21:48;;;;;;;9.77;4.57;;;15.70;99.90;;;;;;5070062;28;20033;-75
2023/06/13 02:24:18;;;;;;;8.98;3.95;;;15.70;99.90;;;;;;5070995;28;20191;-75
2023/06/13 02:26:44;;;;;;;12.75;4.10;;;15.60;99.90;;;;;;5066022;28;20058;-75
2023/06/13 02:29:10;;;;;;;10.90;4.57;;;15.60;99.90;;;;;;5073111;28;21202;-75
2023/06/13 02:31:38;;;;;;;11.93;4.72;;;15.60;99.90;;;;;;5073944;28;20062;-75
2023/06/13 02:34:04;;;;;;;9.48;4.35;;;15.60;99.90;;;;;;5075621;28;20123;-75
2023/06/13 02:36:30;;;;;;;10.13;4.43;;;15.50;99.90;;;;;;5072619;28;20097;-75
2023/06/13 02:38:55;;;;;;;9.52;4.20;;;15.50;99.90;;;;;;5074157;28;20274;-75
2023/06/13 02:41:21;;;;;;;10.82;4.50;;;15.50;99.90;;;;;;5069648;28;20056;-75
2023/06/13 02:43:47;;;;;;;10.80;4.20;;;15.50;99.90;;;;;;5072512;28;20381;-75
2023/06/13 02:46:13;;;;;;;10.07;4.20;;;15.40;99.90;;;;;;5072440;28;20037;-75
2023/06/13 02:48:38;;;;;;;9.63;4.47;;;15.40;99.90;;;;;;5074625;28;20040;-75
2023/06/13 02:51:07;;;;;;;13.93;4.20;;;15.40;99.90;;;;;;5066852;28;20108;-75
2023/06/13 02:53:33;;;;;;;10.32;4.30;;;15.40;99.90;;;;;;5073539;28;20037;-75
2023/06/13 02:55:59;;;;;;;9.13;3.78;;;15.40;99.90;;;;;;5051527;28;20079;-75
2023/06/13 02:58:25;;;;;;;9.57;3.97;;;15.40;99.90;;;;;;5057837;28;20280;-75
2023/06/13 03:00:51;;;;;;;10.25;4.20;;;15.40;99.90;;;;;;5072634;28;20176;-75
2023/06/13 03:03:18;;;;;;;9.32;3.78;;;15.30;99.90;;;;;;5069616;28;20107;-75
2023/06/13 03:05:47;;;;;;;9.65;3.63;;;15.30;99.90;;;;;;5074297;28;20274;-75
2023/06/13 03:08:18;;;;;;;9.48;3.60;;;15.30;99.90;;;;;;5071055;28;20032;-75
2023/06/13 03:10:48;;;;;;;12.43;4.40;;;15.30;99.90;;;;;;5072892;28;20054;-75
2023/06/13 03:13:15;;;;;;;9.05;3.95;;;15.30;99.90;;;;;;5075224;28;20036;-75
2023/06/13 03:15:45;;;;;;;10.32;4.47;;;15.20;99.90;;;;;;5069516;28;20044;-75
2023/06/13 03:18:11;;;;;;;10.88;3.80;;;15.20;99.90;;;;;;5071212;28;20083;-75
2023/06/13 03:20:37;;;;;;;10.20;4.35;;;15.20;99.90;;;;;;5072871;28;20139;-75
2023/06/13 03:23:03;;;;;;;10.48;4.00;;;15.10;99.90;;;;;;5056716;28;20029;-75
2023/06/13 03:25:32;;;;;;;10.50;3.65;;;15.10;99.90;;;;;;5071552;28;20060;-75
2023/06/13 03:27:58;;;;;;;11.68;4.00;;;15.10;99.90;;;;;;5069777;28;20041;-75
2023/06/13 03:30:23;;;;;;;11.43;3.90;;;15.10;99.90;;;;;;5052649;28;20087;-75
2023/06/13 03:32:54;;;;;;;9.30;4.00;;;15.00;99.90;;;;;;5055988;28;20748;-75
2023/06/13 03:35:20;;;;;;;10.50;3.78;;;15.10;99.90;;;;;;5069469;28;20044;-75
2023/06/13 03:37:46;;;;;;;8.32;3.80;;;15.00;99.90;;;;;;5070099;28;20047;-75
2023/06/13 03:40:12;;;;;;;9.88;3.88;;;15.00;99.90;;;;;;5057693;28;20307;-75
2023/06/13 03:42:37;;;;;;;10.32;3.60;;;15.10;99.90;;;;;;5068428;28;20103;-75
2023/06/13 03:45:03;;;;;;;10.27;3.80;;;15.00;99.90;;;;;;5065599;28;20028;-75
2023/06/13 03:47:29;;;;;;;10.98;4.03;;;15.00;99.90;;;;;;5050825;28;20049;-75
2023/06/13 03:49:55;;;;;;;9.90;4.18;;;15.00;99.90;;;;;;5073822;28;20202;-75
2023/06/13 03:52:20;;;;;;;9.63;4.18;;;15.00;99.90;;;;;;5033405;28;20122;-75
2023/06/13 03:54:46;;;;;;;9.45;4.00;;;15.00;99.90;;;;;;5071396;28;20040;-75
2023/06/13 03:57:12;;;;;;;9.57;4.00;;;15.00;99.90;;;;;;5075482;28;20040;-75
2023/06/13 03:59:39;;;;;;;8.45;3.70;;;15.00;99.90;;;;;;5071769;28;20044;-75
2023/06/13 04:02:05;;;;;;;8.57;3.67;;;15.00;99.90;;;;;;5050445;28;20124;-75
2023/06/13 04:04:32;;;;;;;10.45;3.95;;;15.10;99.90;;;;;;5074801;28;20094;-75
2023/06/13 04:07:04;;;;;;;9.40;3.75;;;15.10;99.90;;;;;;5075763;28;20215;-75
2023/06/13 04:09:29;;;;;;;9.37;3.60;;;15.10;99.90;;;;;;5076002;28;20247;-75
2023/06/13 04:11:55;;;;;;;8.30;3.65;;;15.10;99.90;;;;;;5074471;28;20062;-75
2023/06/13 04:14:21;;;;;;;10.40;4.00;;;15.20;99.90;;;;;;5075503;28;20150;-75
2023/06/13 04:16:46;;;;;;;9.93;4.18;;;15.20;99.90;;;;;;5054834;28;20043;-75
2023/06/13 04:19:18;;;;;;;10.57;3.88;;;15.30;99.90;;;;;;5078177;28;20042;-75
2023/06/13 04:21:51;;;;;;;9.57;3.60;;;15.30;99.90;;;;;;5070916;28;20059;-75
2023/06/13 04:24:17;;;;;;;11.68;3.70;;;15.40;99.90;;;;;;5076508;28;20162;-75
2023/06/13 04:26:47;;;;;;;8.90;3.63;;;15.50;99.90;;;;;;5076826;28;20155;-75
2023/06/13 04:29:16;;;;;;;11.60;4.28;;;15.50;99.90;;;;;;5077825;28;20255;-76
2023/06/13 04:31:43;;;;;;;10.48;3.80;;;15.60;99.90;;;;;;5073334;28;20045;-75
2023/06/13 04:34:10;;;;;;;9.27;3.80;;;15.60;99.90;;;;;;5077613;28;20044;-75
2023/06/13 04:36:38;;;;;;;10.88;3.90;;;15.70;99.90;;;;;;5059166;28;20056;-75
2023/06/13 04:39:07;;;;;;;11.13;3.72;;;15.70;99.90;;;;;;5075391;28;20067;-75
2023/06/13 04:41:34;;;;;;;8.07;3.60;;;15.80;99.90;;;;;;5075801;28;20038;-76
2023/06/13 04:44:05;;;;;;;8.38;3.72;;;15.90;99.90;;;;;;5076118;28;20045;-75
2023/06/13 04:46:32;;;;;;;8.35;3.45;;;16.00;99.90;;;;;;5075637;28;20039;-75
2023/06/13 04:48:58;;;;;;;10.27;3.63;;;16.00;99.90;;;;;;5073591;28;20047;-75
2023/06/13 04:51:26;;;;;;;8.35;3.45;;;16.10;99.90;;;;;;5079360;28;20036;-75
2023/06/13 04:53:57;;;;;;;11.43;3.50;;;16.30;99.90;;;;;;5052751;28;20070;-75
2023/06/13 04:56:24;;;;;;;10.98;3.67;;;16.30;99.90;;;;;;5073782;28;20051;-75
2023/06/13 04:58:52;;;;;;;9.23;3.85;;;16.40;99.90;;;;;;5070864;28;20103;-75
2023/06/13 05:01:19;;;;;;;7.55;3.15;;;16.40;99.90;;;;;;5075103;28;20344;-74
2023/06/13 05:03:46;;;;;;;8.38;3.10;;;16.50;99.90;;;;;;5061393;28;20078;-75
2023/06/13 05:06:12;;;;;;;12.63;3.47;;;16.60;99.90;;;;;;5073499;28;20219;-75
2023/06/13 05:08:38;;;;;;;10.55;3.40;;;16.70;99.90;;;;;;5051593;28;20189;-75
2023/06/13 05:11:04;;;;;;;10.50;3.40;;;16.80;99.90;;;;;;5074101;28;20040;-75
2023/06/13 05:13:30;;;;;;;10.38;3.63;;;16.90;99.90;;;;;;5072489;28;20202;-75
2023/06/13 05:15:56;;;;;;;8.50;3.50;;;17.00;99.90;;;;;;5079799;28;20048;-75
2023/06/13 05:18:24;;;;;;;7.85;3.15;;;17.10;99.90;;;;;;5076684;28;20306;-74
2023/06/13 05:20:50;;;;;;;9.90;3.47;;;17.20;99.90;;;;;;5072981;28;20273;-76
2023/06/13 05:23:16;;;;;;;8.10;3.20;;;17.30;99.90;;;;;;5063791;28;20037;-77
2023/06/13 05:25:42;;;;;;;9.43;3.20;;;17.40;99.90;;;;;;5064906;28;20066;-77
2023/06/13 05:28:08;;;;;;;10.50;3.80;;;17.50;99.90;;;;;;5079832;28;20024;-77
2023/06/13 05:30:33;;;;;;;8.38;3.45;;;17.60;99.90;;;;;;5057803;28;20060;-77
2023/06/13 05:32:59;;;;;;;8.30;3.22;;;17.70;99.90;;;;;;5070931;28;20051;-77
2023/06/13 05:35:25;;;;;;;8.57;3.00;;;17.70;99.90;;;;;;5072603;28;20048;-77
2023/06/13 05:37:51;;;;;;;8.63;3.38;;;17.90;99.90;;;;;;5090602;28;20048;-77
2023/06/13 05:40:18;;;;;;;9.60;3.30;;;18.00;99.90;;;;;;5073740;28;20045;-77
2023/06/13 05:42:43;;;;;;;8.10;3.20;;;18.10;99.90;;;;;;5071345;28;20044;-77
2023/06/13 05:45:09;;;;;;;8.70;3.20;;;18.10;99.90;;;;;;5080210;28;20052;-77
2023/06/13 05:47:35;;;;;;;10.18;3.40;;;18.30;99.90;;;;;;5081474;28;20099;-77
2023/06/13 05:50:02;;;;;;;9.00;3.30;;;18.40;99.90;;;;;;5063542;28;20249;-77
2023/06/13 05:52:27;;;;;;;9.60;3.10;;;18.50;99.90;;;;;;5082092;28;20067;-77
2023/06/13 05:54:53;;;;;;;11.10;3.30;;;18.60;99.90;;;;;;5077518;28;20235;-77
2023/06/13 05:57:19;;;;;;;11.88;3.28;;;18.70;99.90;;;;;;5049495;28;20029;-77
2023/06/13 05:59:45;;;;;;;7.57;2.72;;;18.80;99.90;;;;;;5061600;28;20275;-77
2023/06/13 06:02:11;;;;;;;8.25;3.38;;;18.80;99.90;;;;;;5061955;28;20061;-77
2023/06/13 06:04:38;;;;;;;8.50;3.00;;;18.90;99.90;;;;;;5045162;28;20110;-77
2023/06/13 06:07:04;;;;;;;9.88;3.28;;;18.90;99.90;;;;;;5061648;28;20247;-77
2023/06/13 06:09:31;;;;;;;9.07;2.85;;;19.10;99.90;;;;;;5081019;28;20232;-77
2023/06/13 06:11:57;;;;;;;8.73;2.83;;;19.20;99.90;;;;;;5080769;28;20159;-77
2023/06/13 06:14:22;;;;;;;8.55;3.05;;;19.30;99.90;;;;;;5073327;28;20266;-77
2023/06/13 06:16:50;;;;;;;9.57;3.20;;;19.40;99.90;;;;;;5079304;28;20041;-77
2023/06/13 06:19:16;;;;;;;7.40;3.13;;;19.50;99.90;;;;;;5077621;28;20048;-77
2023/06/13 06:21:42;;;;;;;10.77;2.95;;;19.60;99.90;;;;;;5028612;28;20301;-77
2023/06/13 06:24:08;;;;;;;9.45;3.03;;;19.70;99.90;;;;;;5056731;28;20285;-76
2023/06/13 06:26:33;;;;;;;8.70;2.72;;;19.80;99.90;;;;;;5063809;28;20055;-77
2023/06/13 06:28:59;;;;;;;8.38;2.83;;;19.80;99.90;;;;;;5061689;28;20277;-79
2023/06/13 06:31:27;;;;;;;7.57;2.60;;;19.80;99.90;;;;;;5076611;28;20051;-76
2023/06/13 06:33:53;;;;;;;7.65;2.78;;;19.90;99.80;;;;;;5067261;28;20081;-76
2023/06/13 06:36:22;;;;;;;7.53;2.60;;;20.00;99.70;;;;;;5061108;28;20032;-76
2023/06/13 06:38:48;;;;;;;7.00;2.75;;;20.00;99.40;;;;;;5064276;28;20328;-76
2023/06/13 06:41:14;;;;;;;9.93;2.80;;;20.00;98.70;;;;;;5076634;28;20082;-76
2023/06/13 06:43:40;;;;;;;7.45;2.40;;;20.10;98.90;;;;;;5081163;28;20068;-77
2023/06/13 06:46:07;;;;;;;7.03;2.60;;;20.10;98.80;;;;;;5080841;28;20040;-77
2023/06/13 06:48:33;;;;;;;12.38;2.75;;;20.30;98.60;;;;;;5082099;28;20044;-77
2023/06/13 06:50:59;;;;;;;7.15;2.60;;;20.30;98.50;;;;;;5061505;28;20064;-77
2023/06/13 06:53:25;;;;;;;10.15;2.60;;;20.40;98.80;;;;;;5071304;28;20337;-77
2023/06/13 06:55:50;;;;;;;8.95;2.50;;;20.50;98.50;;;;;;5080613;28;20044;-77
2023/06/13 06:58:16;;;;;;;8.70;2.60;;;20.60;98.70;;;;;;5080910;28;20222;-77
2023/06/13 07:00:42;;;;;;;7.90;2.60;;;20.70;98.90;;;;;;5062760;28;20039;-77
2023/06/13 07:03:08;;;;;;;7.53;2.40;;;20.90;99.00;;;;;;5063112;28;20044;-77
2023/06/13 07:05:33;;;;;;;7.70;2.53;;;21.00;98.70;;;;;;5075386;28;20052;-77
2023/06/13 07:07:59;;;;;;;7.20;2.60;;;21.00;98.10;;;;;;5080791;28;20053;-77
2023/06/13 07:10:26;;;;;;;7.35;2.50;;;21.10;97.90;;;;;;5077853;28;20036;-76
2023/06/13 07:12:52;;;;;;;9.43;2.50;;;21.10;98.00;;;;;;5063557;28;20086;-77
2023/06/13 07:15:18;;;;;;;8.27;2.70;;;21.20;97.80;;;;;;5027502;28;20262;-77
2023/06/13 07:17:43;;;;;;;7.00;2.63;;;21.20;97.70;;;;;;5043961;28;20112;-76
2023/06/13 07:20:11;;;;;;;7.60;2.60;;;21.30;97.90;;;;;;5072517;28;20227;-77
2023/06/13 07:22:36;;;;;;;6.82;2.67;;;21.40;97.90;;;;;;5076131;28;20096;-77
2023/06/13 07:25:03;;;;;;;8.38;2.40;;;21.40;97.50;;;;;;5060281;28;20029;-77
2023/06/13 07:27:29;;;;;;;7.40;2.85;;;21.50;97.80;;;;;;5061768;28;20073;-77
2023/06/13 07:29:55;;;;;;;7.68;2.63;;;21.60;97.50;;;;;;5061466;28;20286;-77
2023/06/13 07:32:21;;;;;;;8.23;2.50;;;21.60;97.50;;;;;;5075895;28;20040;-76
2023/06/13 07:34:47;;;;;;;9.60;2.70;;;21.70;97.70;;;;;;5062157;28;20284;-76
2023/06/13 07:37:12;;;;;;;8.45;2.50;;;21.90;97.40;;;;;;5081505;28;20201;-76
2023/06/13 07:39:38;;;;;;;7.43;2.70;;;21.80;97.70;;;;;;5083420;28;20036;-76
2023/06/13 07:42:06;;;;;;;8.68;2.60;;;22.00;97.50;;;;;;5064317;28;20037;-77
2023/06/13 07:44:32;;;;;;;11.35;2.72;;;22.10;97.40;;;;;;5065858;28;20036;-77
2023/06/13 07:46:57;;;;;;;7.45;2.67;;;22.20;97.50;;;;;;5067562;28;20113;-78
2023/06/13 07:49:23;;;;;;;7.78;2.88;;;22.20;97.50;;;;;;5083981;28;20044;-77
2023/06/13 07:51:50;;;;;;;7.93;3.05;;;22.20;97.70;;;;;;5069491;28;20057;-76
2023/06/13 07:54:16;;;;;;;9.32;3.00;;;22.20;96.80;;;;;;5071140;28;20037;-77
2023/06/13 07:56:41;;;;;;;10.23;3.10;;;22.30;97.10;;;;;;5079997;28;20072;-77
2023/06/13 07:59:07;;;;;;;8.20;2.80;;;22.40;97.10;;;;;;5067230;28;20106;-76
2023/06/13 08:01:33;;;;;;;9.00;2.90;;;22.40;97.20;;;;;;5071231;28;20087;-76
2023/06/13 08:03:59;;;;;;;10.32;3.10;;;22.50;97.60;;;;;;5049839;28;20056;-76
2023/06/13 08:06:24;;;;;;;11.55;2.80;;;22.60;97.50;;;;;;5063768;28;20325;-76
2023/06/13 08:08:50;;;;;;;7.20;2.65;;;22.70;97.60;;;;;;5063654;28;20301;-76
2023/06/13 08:11:16;;;;;;;8.98;2.97;;;22.80;97.10;;;;;;5054051;28;20056;-76
2023/06/13 08:13:42;;;;;;;8.68;2.97;;;22.90;97.20;;;;;;5083680;28;20033;-77
2023/06/13 08:16:08;;;;;;;7.90;2.85;;;;;;;;;;5081731;28;20068;-76
2023/06/13 08:18:33;;;;;;;8.18;2.75;;;23.10;97.00;;;;;;5083747;28;20098;-76
2023/06/13 08:20:59;;;;;;;9.55;2.83;;;23.10;96.90;;;;;;5082724;28;20178;-76
2023/06/13 08:23:25;;;;;;;7.75;2.83;;;;;;;;;;5083406;28;20280;-76
2023/06/13 08:25:51;;;;;;;6.63;2.58;;;23.10;96.50;;;;;;5076648;28;20104;-76
2023/06/13 08:28:17;;;;;;;7.63;2.88;;;23.10;96.50;;;;;;5063353;28;20044;-77
2023/06/13 08:30:43;;;;;;;8.38;2.78;;;23.10;96.20;;;;;;5047205;28;21152;-76
2023/06/13 08:33:10;;;;;;;7.05;2.75;;;23.20;96.20;;;;;;5046658;28;20048;-76
2023/06/13 08:35:36;;;;;;;8.57;3.10;;;23.30;96.10;;;;;;5050090;28;20025;-76
2023/06/13 08:38:02;;;;;;;7.40;2.67;;;23.40;95.80;;;;;;5055485;28;20063;-78
2023/06/13 08:40:27;;;;;;;8.68;3.33;;;23.40;96.00;;;;;;5078270;28;20341;-77
2023/06/13 08:42:53;;;;;;;10.55;3.10;;;23.60;95.60;;;;;;5082363;28;20063;-77
2023/06/13 08:45:19;;;;;;;8.82;2.72;;;23.70;95.60;;;;;;5083116;28;20278;-77
2023/06/13 08:47:47;;;;;;;7.25;2.95;;;23.80;95.50;;;;;;5073846;28;20202;-77
2023/06/13 08:50:18;;;;;;;9.20;2.95;;;23.80;95.10;;;;;;5063650;28;20053;-77
2023/06/13 08:52:46;;;;;;;7.65;2.85;;;23.90;95.10;;;;;;5064428;28;20108;-77
2023/06/13 08:55:19;;;;;;;9.35;3.10;;;23.90;95.30;;;;;;5064053;28;20068;-78
2023/06/13 08:57:52;;;;;;;8.48;2.72;;;24.00;95.00;;;;;;5069056;28;20110;-78
2023/06/13 09:00:18;;;;;;;8.13;2.83;;;24.10;94.70;;;;;;5080760;28;20035;-77
2023/06/13 09:02:46;;;;;;;9.68;3.10;;;24.10;94.50;;;;;;5080675;28;20028;-78
2023/06/13 09:05:15;;;;;;;9.30;2.88;;;24.20;94.80;;;;;;5082801;28;20181;-77
2023/06/13 09:07:41;;;;;;;9.25;2.78;;;24.20;94.80;;;;;;5081678;28;20048;-77
2023/06/13 09:10:10;;;;;;;8.38;3.00;;;24.40;94.70;;;;;;5081590;28;20060;-77
2023/06/13 09:12:37;;;;;;;8.52;2.88;;;24.40;94.00;;;;;;5074726;28;20096;-77
2023/06/13 09:15:03;;;;;;;7.53;2.88;;;24.40;93.90;;;;;;5062823;28;20082;-77
2023/06/13 09:17:29;;;;;;;9.45;3.13;;;24.40;93.70;;;;;;5062515;28;20037;-77
2023/06/13 09:19:55;;;;;;;8.45;3.13;;;24.50;93.50;;;;;;5074518;28;20119;-77
2023/06/13 09:22:21;;;;;;;9.15;3.20;;;24.40;93.00;;;;;;5082346;28;20048;-77
2023/06/13 09:24:47;;;;;;;7.35;2.97;;;24.40;93.10;;;;;;5082578;28;20060;-77
2023/06/13 09:27:13;;;;;;;8.35;2.90;;;24.50;92.20;;;;;;5065682;28;20040;-78
2023/06/13 09:29:40;;;;;;;8.27;3.15;;;;;;;;;;5080078;28;20025;-78
2023/06/13 09:32:08;;;;;;;8.27;2.80;;;24.40;92.50;;;;;;5081619;28;20051;-78
2023/06/13 09:34:34;;;;;;;7.40;2.80;;;24.50;92.60;;;;;;5071504;28;20059;-77
2023/06/13 09:37:00;;;;;;;10.20;2.85;;;24.70;92.60;;;;;;5063439;28;20057;-78
2023/06/13 09:39:27;;;;;;;9.07;3.08;;;24.70;92.60;;;;;;5063844;28;20067;-77
2023/06/13 09:41:58;;;;;;;8.73;2.78;;;24.70;91.80;;;;;;5076019;28;20044;-77
2023/06/13 09:44:24;;;;;;;7.72;2.90;;;24.70;92.10;;;;;;5065497;28;20178;-79
2023/06/13 09:46:51;;;;;;;8.07;2.70;;;24.70;92.10;;;;;;5082043;28;20293;-79
2023/06/13 09:49:18;;;;;;;7.63;2.95;;;24.70;91.60;;;;;;5080259;28;20265;-79
2023/06/13 09:51:45;;;;;;;8.57;3.10;;;24.50;91.30;;;;;;5070193;28;20210;-79
2023/06/13 09:54:12;;;;;;;8.18;3.05;;;24.60;92.20;;;;;;5065148;28;20043;-78
2023/06/13 09:56:43;;;;;;;8.45;2.70;;;24.60;92.20;;;;;;5081811;28;20075;-77
2023/06/13 09:59:19;;;;;;;10.55;2.95;;;24.70;92.90;;;;;;5064074;28;20219;-77
2023/06/13 10:01:47;;;;;;;8.68;2.88;;;24.80;93.40;;;;;;5076121;28;20041;-78
2023/06/13 10:04:12;;;;;;;7.80;3.05;;;24.90;93.50;;;;;;5061704;28;20225;-77
2023/06/13 10:06:38;;;;;;;7.88;3.08;;;24.90;93.10;;;;;;5062900;28;20047;-78
2023/06/13 10:09:04;;;;;;;7.72;2.40;;;24.80;92.90;;;;;;5061720;28;20119;-78
2023/06/13 10:11:34;;;;;;;7.63;2.90;;;24.60;93.10;;;;;;5079155;28;20056;-78
2023/06/13 10:14:22;;;;;;;8.45;2.90;;;24.80;93.20;;;;;;5065101;28;20334;-78
2023/06/13 10:17:08;;;;;;;9.48;2.55;;;24.70;93.50;;;;;;5061273;28;20112;-78
2023/06/13 10:19:39;;;;;;;8.05;2.80;;;24.80;94.10;;;;;;5066408;28;20029;-79
2023/06/13 10:22:09;;;;;;;8.23;2.90;;;24.90;93.70;;;;;;5080494;28;20317;-79
2023/06/13 10:24:36;;;;;;;9.65;3.10;;;24.80;93.70;;;;;;5081418;28;20067;-78
2023/06/13 10:27:05;;;;;;;8.35;3.03;;;24.80;93.70;;;;;;5082745;28;20044;-77
2023/06/13 10:29:46;;;;;;;10.52;2.85;;;24.80;94.00;;;;;;5079637;28;20274;-78
2023/06/13 10:32:42;;;;;;;8.65;3.00;;;24.90;94.80;;;;;;5069186;28;20048;-78
2023/06/13 10:35:11;;;;;;;8.25;2.70;;;24.90;95.20;;;;;;5074365;28;20041;-78
2023/06/13 10:38:21;;;;;;;8.60;2.95;;;25.00;94.90;;;;;;5066186;28;20036;-78
2023/06/13 10:41:34;;;;;;;8.63;2.90;;;25.00;95.00;;;;;;5060854;28;20396;-79
2023/06/13 10:44:10;;;;;;;10.45;3.22;;;25.00;94.90;;;;;;5048173;28;20119;-78
2023/06/13 10:46:37;;;;;;;8.63;2.80;;;24.90;95.30;;;;;;5078802;28;20036;-78
2023/06/13 10:49:03;;;;;;;8.50;2.80;;;25.00;95.50;;;;;;5080809;28;20210;-79
2023/06/13 10:51:32;;;;;;;9.23;2.83;;;25.00;95.50;;;;;;5081773;28;20113;-79
2023/06/13 10:54:08;;;;;;;8.30;2.72;;;24.90;95.00;;;;;;5080665;28;20043;-79
2023/06/13 10:56:37;;;;;;;8.27;2.58;;;25.00;95.00;;;;;;5065158;28;20057;-79
2023/06/13 10:59:16;;;;;;;9.75;2.65;;;24.90;95.00;;;;;;5061080;28;20192;-78
2023/06/13 11:01:44;;;;;;;7.68;2.70;;;24.90;95.40;;;;;;5060730;28;20040;-79
2023/06/13 11:04:09;;;;;;;10.15;2.60;;;24.90;95.00;;;;;;5061671;28;20045;-78
2023/06/13 11:06:36;;;;;;;8.00;2.65;;;24.90;95.00;;;;;;5056246;28;20049;-78
2023/06/13 11:09:35;;;;;;;8.18;2.80;;;25.00;94.90;;;;;;5073354;28;20036;-78
2023/06/13 11:12:01;;;;;;;10.40;2.92;;;25.10;94.90;;;;;;5047411;28;20056;-79
2023/06/13 11:14:32;;;;;;;8.90;2.50;;;25.10;94.50;;;;;;5080547;28;20078;-79
2023/06/13 11:16:58;;;;;;;8.35;2.80;;;25.10;94.60;;;;;;5078120;28;20120;-79
2023/06/13 11:19:28;;;;;;;8.05;2.65;;;25.00;94.30;;;;;;5065303;28;20210;-79
2023/06/13 11:22:01;;;;;;;7.43;2.50;;;25.00;94.50;;;;;;5080830;28;20293;-79
2023/06/13 11:24:30;;;;;;;8.10;2.58;;;25.00;93.60;;;;;;5081758;28;20079;-78
2023/06/13 11:26:57;;;;;;;7.75;2.50;;;25.00;93.80;;;;;;5078192;28;20311;-79
2023/06/13 11:29:23;;;;;;;8.80;2.70;;;23.70;93.30;;;;;;5079768;28;20043;-79
2023/06/13 11:31:53;;;;;;;9.50;2.75;;;25.00;93.60;;;;;;5064015;28;20305;-80
2023/06/13 11:34:24;;;;;;;10.75;2.90;;;24.90;93.10;;;;;;5049410;28;20033;-79
2023/06/13 11:37:05;;;;;;;7.22;2.60;;;24.90;93.30;;;;;;5064444;28;20040;-79
2023/06/13 11:39:40;;;;;;;7.15;2.55;;;24.90;93.00;;;;;;5067822;28;20072;-78
2023/06/13 11:42:08;;;;;;;7.60;2.58;;;25.00;93.30;;;;;;5081476;28;20098;-78
2023/06/13 11:44:37;;;;;;;9.25;2.40;;;25.10;93.30;;;;;;5081571;28;20108;-78
2023/06/13 11:47:03;;;;;;;7.20;2.40;;;25.70;93.10;;;;;;5079247;28;20045;-79
2023/06/13 11:49:29;;;;;;;11.00;2.67;;;25.20;93.00;;;;;;5065646;28;20365;-78
2023/06/13 11:51:55;;;;;;;8.30;2.40;;;25.00;92.60;;;;;;5060187;28;20052;-78
2023/06/13 11:54:31;;;;;;;7.00;2.50;;;25.00;92.60;;;;;;5059853;28;20033;-79
2023/06/13 11:56:56;;;;;;;7.20;2.80;;;25.20;92.70;;;;;;5060321;28;20346;-79
2023/06/13 11:59:25;;;;;;;9.60;2.50;;;25.10;92.60;;;;;;5056947;28;20025;-78
2023/06/13 12:01:53;;;;;;;8.15;2.70;;;25.20;92.40;;;;;;5060647;28;20048;-79
2023/06/13 12:04:22;;;;;;;7.07;2.42;;;25.20;92.40;;;;;;5059917;28;20048;-78
2023/06/13 12:06:50;;;;;;;8.00;2.53;;;25.20;92.30;;;;;;5061050;28;20127;-78
2023/06/13 12:09:17;;;;;;;8.00;2.70;;;25.30;92.10;;;;;;5069050;28;20326;-78
2023/06/13 12:11:43;;;;;;;7.50;2.30;;;25.20;91.70;;;;;;5062040;28;20328;-78
2023/06/13 12:14:09;;;;;;;7.82;2.90;;;25.30;91.90;;;;;;5059912;28;20041;-78
2023/06/13 12:16:37;;;;;;;9.65;2.80;;;25.30;91.80;;;;;;5059929;28;20043;-78
2023/06/13 12:19:04;;;;;;;7.93;2.70;;;25.40;91.70;;;;;;5064707;28;20032;-79
2023/06/13 12:21:38;;;;;;;8.32;2.60;;;25.50;91.70;;;;;;5073431;28;20289;-79
2023/06/13 12:24:07;;;;;;;8.10;2.30;;;25.50;91.40;;;;;;5068814;28;20072;-79
2023/06/13 12:26:35;;;;;;;8.20;2.53;;;25.50;91.40;;;;;;5063472;28;20032;-78
2023/06/13 12:29:06;;;;;;;9.38;2.60;;;25.50;91.20;;;;;;5063314;28;20045;-79
2023/06/13 12:31:38;;;;;;;7.40;2.47;;;25.60;91.20;;;;;;5069449;28;20025;-79
2023/06/13 12:34:14;;;;;;;9.80;2.80;;;25.50;90.80;;;;;;5064854;28;20100;-78
2023/06/13 12:36:43;;;;;;;8.85;2.78;;;25.50;90.80;;;;;;5063203;28;20091;-78
2023/06/13 12:39:14;;;;;;;8.13;2.42;;;25.50;90.90;;;;;;5064135;28;20064;-78
2023/06/13 12:41:50;;;;;;;6.65;2.50;;;25.60;91.20;;;;;;5076598;28;20070;-78
2023/06/13 12:44:19;;;;;;;7.97;2.50;;;25.70;91.10;;;;;;5083389;28;20223;-78
2023/06/13 12:46:45;;;;;;;11.45;2.80;;;25.60;91.10;;;;;;5083152;28;20163;-79
2023/06/13 12:49:13;;;;;;;9.30;2.63;;;24.10;90.90;;;;;;5083972;28;20048;-78
2023/06/13 12:51:52;;;;;;;9.18;2.80;;;25.70;91.40;;;;;;5074753;28;20067;-77